createdAt,value
2022-11-06T00:01:44.364Z,1.70
2022-11-06T00:06:04.951Z,6.32
2022-11-06T00:10:07.257Z,2.40
2022-11-06T00:14:10.282Z,4.00
2022-11-06T00:18:12.561Z,2.75
2022-11-06T00:22:16.493Z,2.10
2022-11-06T00:26:21.310Z,2.40
2022-11-06T00:30:25.338Z,1.88
2022-11-06T00:34:27.935Z,4.35
2022-11-06T00:38:30.272Z,2.05
2022-11-06T00:42:32.560Z,1.70
2022-11-06T00:46:34.979Z,4.72
2022-11-06T00:50:37.225Z,2.47
2022-11-06T00:54:39.282Z,3.60
2022-11-06T00:58:41.864Z,1.92
2022-11-06T01:02:45.892Z,3.78
2022-11-06T01:06:53.586Z,2.50
2022-11-06T01:10:55.949Z,2.00
2022-11-06T01:14:58.410Z,0.60
2022-11-06T01:19:01.849Z,1.70
2022-11-06T01:23:04.160Z,1.90
2022-11-06T01:31:31.844Z,1.63
2022-11-06T01:35:34.039Z,1.50
2022-11-06T01:39:36.328Z,3.22
2022-11-06T01:43:54.532Z,6.57
2022-11-06T01:47:57.096Z,3.88
2022-11-06T01:52:12.128Z,1.40
2022-11-06T01:56:15.315Z,2.40
2022-11-06T02:00:18.029Z,5.88
2022-11-06T02:04:22.424Z,0.52
2022-11-06T02:08:25.598Z,0.73
2022-11-06T02:12:36.852Z,1.65
2022-11-06T02:17:04.797Z,2.55
2022-11-06T02:21:35.346Z,1.75
2022-11-06T02:25:46.371Z,1.15
2022-11-06T02:30:06.350Z,0.75
2022-11-06T02:34:19.510Z,4.10
2022-11-06T02:38:28.300Z,2.88
2022-11-06T02:42:34.369Z,1.35
2022-11-06T02:46:41.970Z,1.67
2022-11-06T02:50:47.416Z,2.47
2022-11-06T02:54:59.980Z,2.17
2022-11-06T02:59:09.764Z,2.63
2022-11-06T03:03:20.225Z,3.42
2022-11-06T03:07:44.636Z,1.73
2022-11-06T03:11:54.040Z,2.78
2022-11-06T03:16:15.346Z,3.00
2022-11-06T03:20:30.485Z,1.67
2022-11-06T03:24:39.363Z,2.08
2022-11-06T03:29:06.497Z,5.07
2022-11-06T03:33:19.494Z,1.83
2022-11-06T03:37:30.728Z,5.80
2022-11-06T03:42:02.277Z,2.25
2022-11-06T03:46:16.713Z,1.50
2022-11-06T03:50:32.161Z,1.00
2022-11-06T03:54:47.614Z,0.52
2022-11-06T03:58:51.041Z,0.98
2022-11-06T04:03:07.534Z,2.00
2022-11-06T04:07:16.580Z,2.45
2022-11-06T04:11:41.925Z,1.15
2022-11-06T04:15:52.087Z,1.45
2022-11-06T04:19:59.155Z,4.68
2022-11-06T04:24:41.690Z,1.30
2022-11-06T04:29:18.860Z,1.20
2022-11-06T04:33:29.496Z,2.05
2022-11-06T04:37:50.098Z,2.65
2022-11-06T04:42:06.818Z,1.67
2022-11-06T04:46:12.360Z,3.65
2022-11-06T04:50:17.594Z,2.40
2022-11-06T04:54:20.302Z,1.02
2022-11-06T04:58:22.449Z,0.90
2022-11-06T05:02:24.985Z,2.03
2022-11-06T05:06:30.000Z,1.33
2022-11-06T05:10:32.489Z,1.65
2022-11-06T05:14:34.620Z,2.45
2022-11-06T05:18:36.629Z,1.15
2022-11-06T05:23:00.932Z,2.45
2022-11-06T05:27:03.059Z,2.20
2022-11-06T05:31:05.673Z,1.85
2022-11-06T05:35:07.968Z,1.17
2022-11-06T05:39:10.346Z,1.45
2022-11-06T05:43:13.245Z,1.70
2022-11-06T05:47:15.247Z,3.38
2022-11-06T05:51:17.910Z,1.60
2022-11-06T05:55:20.346Z,4.63
2022-11-06T05:59:22.359Z,1.70
2022-11-06T06:03:25.109Z,1.65
2022-11-06T06:07:27.200Z,4.88
2022-11-06T06:11:29.264Z,1.58
2022-11-06T06:16:03.542Z,1.77
2022-11-06T06:20:06.272Z,4.68
2022-11-06T06:24:08.317Z,3.35
2022-11-06T06:28:10.577Z,0.77
2022-11-06T06:32:13.087Z,0.85
2022-11-06T06:36:15.302Z,1.20
2022-11-06T06:40:17.348Z,2.00
2022-11-06T06:44:19.495Z,3.42
2022-11-06T06:48:21.425Z,4.70
2022-11-06T06:52:23.416Z,3.25
2022-11-06T06:56:25.380Z,2.92
2022-11-06T07:00:32.636Z,4.10
2022-11-06T07:04:34.987Z,1.10
2022-11-06T07:08:37.407Z,1.25
2022-11-06T07:12:39.370Z,0.98
2022-11-06T07:16:41.806Z,0.52
2022-11-06T07:20:43.759Z,6.00
2022-11-06T07:24:45.759Z,1.02
2022-11-06T07:28:47.679Z,1.48
2022-11-06T07:32:49.651Z,2.35
2022-11-06T07:36:51.560Z,3.58
2022-11-06T07:40:53.536Z,1.42
2022-11-06T07:44:56.165Z,1.17
2022-11-06T07:48:58.070Z,0.50
2022-11-06T07:53:03.244Z,1.40
2022-11-06T07:57:05.204Z,2.70
2022-11-06T08:01:17.965Z,5.20
2022-11-06T08:05:21.080Z,2.53
2022-11-06T08:09:25.161Z,2.85
2022-11-06T08:13:27.134Z,1.50
2022-11-06T08:17:30.379Z,6.15
2022-11-06T08:21:32.372Z,3.13
2022-11-06T08:25:35.135Z,3.08
2022-11-06T08:29:41.161Z,0.90
2022-11-06T08:33:43.817Z,1.27
2022-11-06T08:37:46.009Z,2.33
2022-11-06T08:41:48.162Z,0.88
2022-11-06T08:45:50.301Z,1.20
2022-11-06T08:49:52.258Z,0.70
2022-11-06T08:53:54.233Z,3.35
2022-11-06T08:57:56.648Z,0.80
2022-11-06T09:01:59.229Z,1.13
2022-11-06T09:06:01.606Z,1.20
2022-11-06T09:10:03.997Z,0.40
2022-11-06T09:14:05.959Z,1.05
2022-11-06T09:18:08.759Z,1.48
2022-11-06T09:22:10.775Z,0.98
2022-11-06T09:26:12.738Z,1.60
2022-11-06T09:30:16.687Z,0.50
2022-11-06T09:34:18.876Z,0.73
2022-11-06T09:38:20.824Z,0.30
2022-11-06T09:42:31.883Z,1.33
2022-11-06T09:46:46.057Z,0.30
2022-11-06T09:50:55.876Z,1.15
2022-11-06T09:55:24.693Z,3.03
2022-11-06T09:59:27.502Z,0.87
2022-11-06T10:03:40.983Z,1.75
2022-11-06T10:07:45.821Z,1.35
2022-11-06T10:11:54.745Z,1.83
2022-11-06T10:16:32.179Z,0.65
2022-11-06T10:20:50.618Z,0.50
2022-11-06T10:24:56.172Z,0.63
2022-11-06T10:29:01.752Z,1.33
2022-11-06T10:38:10.497Z,0.80
2022-11-06T10:42:15.602Z,0.80
2022-11-06T10:46:49.015Z,0.77
2022-11-06T10:51:16.975Z,0.60
2022-11-06T10:55:32.670Z,0.82
2022-11-06T10:59:35.039Z,1.25
2022-11-06T11:03:42.194Z,0.28
2022-11-06T11:07:47.301Z,0.68
2022-11-06T11:11:50.148Z,1.17
2022-11-06T11:16:02.092Z,0.63
2022-11-06T11:20:25.271Z,0.17
2022-11-06T11:24:27.749Z,0.32
2022-11-06T11:28:31.504Z,0.88
2022-11-06T11:32:33.953Z,0.67
2022-11-06T11:36:48.108Z,0.22
2022-11-06T11:40:51.548Z,0.25
2022-11-06T11:45:19.777Z,0.77
2022-11-06T11:49:32.237Z,1.38
2022-11-06T11:53:34.318Z,0.35
2022-11-06T11:57:36.234Z,1.73
2022-11-06T12:01:41.043Z,1.77
2022-11-06T12:05:43.123Z,0.60
2022-11-06T12:09:45.337Z,2.33
2022-11-06T12:14:26.247Z,0.57
2022-11-06T12:18:33.018Z,2.20
2022-11-06T12:22:42.056Z,0.63
2022-11-06T12:27:13.665Z,0.52
2022-11-06T12:31:24.919Z,0.30
2022-11-06T12:35:40.386Z,0.30
2022-11-06T12:39:46.665Z,0.30
2022-11-06T12:43:50.689Z,0.28
2022-11-06T12:48:04.847Z,0.80
2022-11-06T12:52:18.854Z,0.75
2022-11-06T12:56:39.477Z,1.65
2022-11-06T13:01:21.836Z,0.40
2022-11-06T13:05:35.146Z,0.65
2022-11-06T13:10:02.690Z,1.40
2022-11-06T13:14:14.099Z,0.70
2022-11-06T13:18:36.189Z,3.03
2022-11-06T13:22:40.633Z,0.55
2022-11-06T13:26:47.933Z,1.90
2022-11-06T13:30:52.245Z,1.05
2022-11-06T13:39:07.694Z,0.50
2022-11-06T13:43:23.573Z,0.30
2022-11-06T13:47:49.513Z,0.98
2022-11-06T13:51:58.596Z,0.38
2022-11-06T13:56:20.629Z,0.30
2022-11-06T14:00:24.789Z,0.93
2022-11-06T14:05:18.876Z,0.75
2022-11-06T14:09:24.815Z,0.40
2022-11-06T14:13:33.831Z,0.80
2022-11-06T14:17:36.919Z,0.55
2022-11-06T14:21:47.866Z,0.40
2022-11-06T14:26:08.713Z,0.65
2022-11-06T14:30:50.359Z,0.68
2022-11-06T14:34:54.465Z,0.55
2022-11-06T14:38:56.846Z,1.77
2022-11-06T14:42:59.091Z,0.60
2022-11-06T14:47:05.778Z,1.30
2022-11-06T14:51:11.351Z,1.45
2022-11-06T14:55:45.781Z,1.10
2022-11-06T14:59:49.160Z,0.75
2022-11-06T15:03:55.513Z,1.90
2022-11-06T15:08:06.686Z,2.25
2022-11-06T15:12:08.939Z,0.40
2022-11-06T15:16:12.941Z,8.57
2022-11-06T15:20:22.004Z,12.25
2022-11-06T15:24:31.563Z,2.53
2022-11-06T15:28:42.313Z,1.90
2022-11-06T15:32:47.564Z,1.58
2022-11-06T15:37:12.360Z,4.13
2022-11-06T15:45:48.762Z,7.72
2022-11-06T15:50:16.871Z,1.77
2022-11-06T15:54:31.916Z,2.47
2022-11-06T15:58:38.125Z,0.77
2022-11-06T16:02:59.579Z,10.90
2022-11-06T16:07:05.733Z,1.73
2022-11-06T16:11:19.913Z,2.60
2022-11-06T16:15:43.700Z,7.93
2022-11-06T16:19:51.090Z,5.40
2022-11-06T16:23:59.400Z,2.08
2022-11-06T16:28:01.509Z,5.30
2022-11-06T16:32:07.148Z,4.80
2022-11-06T16:36:13.654Z,12.00
2022-11-06T16:40:54.134Z,16.52
2022-11-06T16:45:08.333Z,9.48
2022-11-06T16:49:33.217Z,12.32
2022-11-06T16:57:59.407Z,10.02
2022-11-06T17:02:01.888Z,11.35
2022-11-06T17:06:04.226Z,21.50
2022-11-06T17:10:34.724Z,20.23
2022-11-06T17:14:37.171Z,24.27
2022-11-06T17:18:39.681Z,31.38
2022-11-06T17:22:41.601Z,23.83
2022-11-06T17:26:48.835Z,22.52
2022-11-06T17:30:51.372Z,35.50
2022-11-06T17:34:53.450Z,33.38
2022-11-06T17:38:56.625Z,27.08
2022-11-06T17:42:58.947Z,17.05
2022-11-06T17:47:01.041Z,12.15
2022-11-06T17:51:21.725Z,12.38
2022-11-06T17:55:23.892Z,9.50
2022-11-06T17:59:26.162Z,7.35
2022-11-06T18:03:32.306Z,9.48
2022-11-06T18:07:37.335Z,26.38
2022-11-06T18:11:39.491Z,12.23
2022-11-06T18:15:41.463Z,11.15
2022-11-06T18:19:43.526Z,11.63
2022-11-06T18:23:45.545Z,9.77
2022-11-06T18:27:47.813Z,13.60
2022-11-06T18:31:49.971Z,13.15
2022-11-06T18:35:52.249Z,10.88
2022-11-06T18:39:54.401Z,12.85
2022-11-06T18:43:58.217Z,12.13
2022-11-06T18:48:00.181Z,10.73
2022-11-06T18:52:02.266Z,17.75
2022-11-06T18:56:04.683Z,11.82
2022-11-06T19:00:07.505Z,12.88
2022-11-06T19:04:10.798Z,17.05
2022-11-06T19:08:13.372Z,13.48
2022-11-06T19:12:15.819Z,12.95
2022-11-06T19:16:21.233Z,11.70
2022-11-06T19:20:23.335Z,13.13
2022-11-06T19:24:25.273Z,9.68
2022-11-06T19:28:28.426Z,9.57
2022-11-06T19:32:33.309Z,20.17
2022-11-06T19:36:36.933Z,18.15
2022-11-06T19:40:38.924Z,25.67
2022-11-06T19:44:40.915Z,15.73
2022-11-06T19:48:43.232Z,16.58
2022-11-06T19:52:50.945Z,14.82
2022-11-06T19:57:27.215Z,13.80
2022-11-06T20:01:20.871Z,17.90
2022-11-06T20:05:23.009Z,15.52
2022-11-06T20:09:24.997Z,11.82
2022-11-06T20:13:29.514Z,16.20
2022-11-06T20:17:44.558Z,13.82
2022-11-06T20:21:46.550Z,15.65
2022-11-06T20:25:53.018Z,59.90
2022-11-06T20:29:55.033Z,18.17
2022-11-06T20:33:57.709Z,17.35
2022-11-06T20:37:59.732Z,15.43
2022-11-06T20:42:01.751Z,14.32
2022-11-06T20:46:04.343Z,17.20
2022-11-06T20:50:06.752Z,14.95
2022-11-06T20:54:08.804Z,12.93
2022-11-06T20:58:11.726Z,12.57
2022-11-06T21:02:13.986Z,14.75
2022-11-06T21:06:17.393Z,17.65
2022-11-06T21:10:19.565Z,16.23
2022-11-06T21:14:22.611Z,12.00
2022-11-06T21:18:25.752Z,21.50
2022-11-06T21:22:27.704Z,19.30
2022-11-06T21:26:32.383Z,18.90
2022-11-06T21:34:37.009Z,18.42
2022-11-06T21:38:39.237Z,14.95
2022-11-06T21:42:41.246Z,15.00
2022-11-06T21:46:45.650Z,15.32
2022-11-06T21:50:47.920Z,14.10
2022-11-06T21:55:08.613Z,10.05
2022-11-06T21:59:14.532Z,8.90
2022-11-06T22:03:17.430Z,11.75
2022-11-06T22:07:19.425Z,8.98
2022-11-06T22:11:23.234Z,10.32
2022-11-06T22:15:25.641Z,8.70
2022-11-06T22:19:27.714Z,15.13
2022-11-06T22:23:29.671Z,7.57
2022-11-06T22:27:32.566Z,7.13
2022-11-06T22:31:36.635Z,8.70
2022-11-06T22:35:38.566Z,11.13
2022-11-06T22:39:40.848Z,10.23
2022-11-06T22:43:44.582Z,5.35
2022-11-06T22:47:47.027Z,4.10
2022-11-06T22:51:49.466Z,4.65
2022-11-06T22:55:55.410Z,8.40
2022-11-06T22:59:57.370Z,7.45
2022-11-06T23:04:04.515Z,7.28
2022-11-06T23:08:06.539Z,5.68
2022-11-06T23:12:08.553Z,5.18
2022-11-06T23:16:13.497Z,6.20
2022-11-06T23:20:16.037Z,6.00
2022-11-06T23:24:18.339Z,7.35
2022-11-06T23:28:20.713Z,3.97
2022-11-06T23:32:22.665Z,7.70
2022-11-06T23:36:25.231Z,7.18
2022-11-06T23:40:27.484Z,7.55
2022-11-06T23:44:47.964Z,7.57
2022-11-06T23:48:50.069Z,10.85
2022-11-06T23:52:52.044Z,10.25
2022-11-06T23:56:53.988Z,9.23
